createdAt,value
2018-04-18T00:00:23.482Z,12.32
2018-04-18T00:02:52.974Z,12.47
2018-04-18T00:05:21.279Z,13.07
2018-04-18T00:07:50.533Z,12.93
2018-04-18T00:10:18.928Z,9.57
2018-04-18T00:12:47.284Z,11.40
2018-04-18T00:15:15.699Z,10.13
2018-04-18T00:17:44.914Z,10.77
2018-04-18T00:20:13.365Z,16.05
2018-04-18T00:22:41.888Z,10.50
2018-04-18T00:25:10.164Z,10.13
2018-04-18T00:27:38.695Z,10.77
2018-04-18T00:30:08.573Z,11.55
2018-04-18T00:32:37.073Z,11.23
2018-04-18T00:35:05.404Z,10.33
2018-04-18T00:37:35.744Z,11.93
2018-04-18T00:40:04.044Z,11.43
2018-04-18T00:42:32.541Z,12.27
2018-04-18T00:45:00.824Z,12.30
2018-04-18T00:47:29.221Z,12.33
2018-04-18T00:49:58.411Z,14.30
2018-04-18T00:52:26.742Z,12.82
2018-04-18T00:54:55.235Z,12.43
2018-04-18T00:57:23.544Z,12.80
2018-04-18T00:59:51.895Z,11.77
2018-04-18T01:02:20.175Z,16.10
2018-04-18T01:04:48.486Z,10.47
2018-04-18T01:07:16.809Z,10.77
2018-04-18T01:09:45.277Z,12.60
2018-04-18T01:12:13.630Z,12.07
2018-04-18T01:14:42.775Z,13.03
2018-04-18T01:17:11.496Z,14.07
2018-04-18T01:19:39.761Z,15.05
2018-04-18T01:22:08.064Z,14.67
2018-04-18T01:24:37.246Z,16.62
2018-04-18T01:27:05.565Z,11.93
2018-04-18T01:29:33.966Z,18.63
2018-04-18T01:32:02.410Z,13.63
2018-04-18T01:34:31.554Z,14.20
2018-04-18T01:36:59.899Z,11.53
2018-04-18T01:39:28.200Z,9.43
2018-04-18T01:41:56.726Z,12.50
2018-04-18T01:44:24.992Z,15.83
2018-04-18T01:46:53.298Z,14.73
2018-04-18T01:49:23.097Z,12.83
2018-04-18T01:51:52.315Z,11.63
2018-04-18T01:54:20.867Z,13.03
2018-04-18T01:56:50.011Z,12.77
2018-04-18T01:59:18.408Z,10.97
2018-04-18T02:01:46.737Z,14.32
2018-04-18T02:04:15.906Z,12.10
2018-04-18T02:06:44.315Z,11.40
2018-04-18T02:09:13.423Z,13.53
2018-04-18T02:11:41.723Z,13.90
2018-04-18T02:14:10.011Z,9.93
2018-04-18T02:16:38.299Z,11.57
2018-04-18T02:19:06.616Z,11.12
2018-04-18T02:21:35.764Z,33.63
2018-04-18T02:24:04.098Z,27.37
2018-04-18T02:26:32.465Z,15.90
2018-04-18T02:29:01.534Z,10.95
2018-04-18T02:31:29.833Z,13.63
2018-04-18T02:33:59.006Z,13.23
2018-04-18T02:36:27.292Z,13.73
2018-04-18T02:38:55.594Z,13.80
2018-04-18T02:41:23.921Z,13.43
2018-04-18T02:43:52.332Z,14.77
2018-04-18T02:46:21.408Z,14.33
2018-04-18T02:48:49.702Z,15.50
2018-04-18T02:51:17.993Z,13.53
2018-04-18T02:53:47.045Z,10.63
2018-04-18T02:56:15.360Z,12.53
2018-04-18T02:58:44.196Z,13.00
2018-04-18T03:01:12.617Z,44.42
2018-04-18T03:03:41.820Z,58.87
2018-04-18T03:06:10.954Z,22.30
2018-04-18T03:08:39.262Z,15.37
2018-04-18T03:11:07.723Z,15.83
2018-04-18T03:13:36.169Z,12.47
2018-04-18T03:16:04.637Z,13.33
2018-04-18T03:18:33.151Z,11.47
2018-04-18T03:21:01.418Z,11.93
2018-04-18T03:23:29.795Z,10.13
2018-04-18T03:25:58.167Z,11.40
2018-04-18T03:28:26.582Z,14.47
2018-04-18T03:30:54.889Z,10.13
2018-04-18T03:33:23.455Z,12.97
2018-04-18T03:35:51.912Z,10.33
2018-04-18T03:38:20.266Z,9.90
2018-04-18T03:40:48.580Z,12.17
2018-04-18T03:43:16.858Z,14.40
2018-04-18T03:45:45.276Z,12.10
2018-04-18T03:48:14.466Z,8.53
2018-04-18T03:50:42.815Z,11.70
2018-04-18T03:53:11.235Z,12.70
2018-04-18T03:55:40.513Z,10.17
2018-04-18T03:58:08.894Z,10.50
2018-04-18T04:00:37.217Z,14.47
2018-04-18T04:03:05.526Z,11.83
2018-04-18T04:05:33.969Z,13.27
2018-04-18T04:08:02.770Z,14.23
2018-04-18T04:10:32.754Z,13.73
2018-04-18T04:13:03.031Z,14.03
2018-04-18T04:15:31.474Z,14.43
2018-04-18T04:18:17.541Z,16.10
2018-04-18T04:21:04.418Z,9.82
2018-04-18T04:23:50.413Z,12.37
2018-04-18T04:26:18.902Z,10.97
2018-04-18T04:28:48.148Z,12.98
2018-04-18T04:31:16.542Z,17.05
2018-04-18T04:33:46.772Z,12.80
2018-04-18T04:36:15.122Z,12.63
2018-04-18T04:38:43.950Z,14.90
2018-04-18T04:41:12.293Z,18.50
2018-04-18T04:43:40.754Z,11.53
2018-04-18T04:46:09.855Z,15.07
2018-04-18T04:48:39.114Z,14.20
2018-04-18T04:51:07.591Z,13.20
2018-04-18T04:53:35.926Z,10.67
2018-04-18T04:56:04.314Z,13.77
2018-04-18T04:58:32.884Z,12.37
2018-04-18T05:01:01.375Z,12.00
2018-04-18T05:03:29.776Z,10.82
2018-04-18T05:05:58.128Z,10.97
2018-04-18T05:08:27.576Z,18.90
2018-04-18T05:10:55.881Z,14.47
2018-04-18T05:13:25.121Z,15.93
2018-04-18T05:15:53.410Z,22.40
2018-04-18T05:18:21.900Z,16.47
2018-04-18T05:20:50.216Z,13.03
2018-04-18T05:23:19.426Z,16.73
2018-04-18T05:25:47.816Z,13.48
2018-04-18T05:28:16.241Z,16.37
2018-04-18T05:30:44.561Z,14.63
2018-04-18T05:33:13.808Z,11.37
2018-04-18T05:35:42.115Z,15.90
2018-04-18T05:38:10.881Z,18.63
2018-04-18T05:40:39.215Z,17.13
2018-04-18T05:43:07.532Z,12.73
2018-04-18T05:45:36.425Z,11.07
2018-04-18T05:48:04.756Z,13.60
2018-04-18T05:50:33.249Z,10.43
2018-04-18T05:53:01.539Z,16.87
2018-04-18T05:55:29.889Z,15.47
2018-04-18T05:57:58.457Z,20.23
2018-04-18T06:00:27.530Z,15.25
2018-04-18T06:02:56.226Z,21.27
2018-04-18T06:05:24.525Z,19.57
2018-04-18T06:07:53.649Z,21.73
2018-04-18T06:10:21.943Z,20.33
2018-04-18T06:12:50.776Z,25.53
2018-04-18T06:15:19.981Z,20.53
2018-04-18T06:17:49.176Z,20.40
2018-04-18T06:20:18.275Z,14.80
2018-04-18T06:22:47.354Z,26.90
2018-04-18T06:25:16.465Z,16.23
2018-04-18T06:27:45.518Z,31.57
2018-04-18T06:30:13.891Z,27.70
2018-04-18T06:32:42.310Z,20.42
2018-04-18T06:35:11.361Z,20.67
2018-04-18T06:37:39.700Z,17.57
2018-04-18T06:40:08.017Z,14.57
2018-04-18T06:42:36.325Z,17.07
2018-04-18T06:45:06.113Z,28.42
2018-04-18T06:47:34.437Z,22.40
2018-04-18T06:50:02.745Z,22.30
2018-04-18T06:52:31.056Z,27.13
2018-04-18T06:54:59.321Z,17.50
2018-04-18T06:57:27.627Z,13.35
2018-04-18T06:59:56.715Z,18.13
2018-04-18T07:02:24.980Z,22.07
2018-04-18T07:04:53.295Z,24.23
2018-04-18T07:07:21.608Z,19.63
2018-04-18T07:09:49.942Z,24.50
2018-04-18T07:12:18.371Z,15.73
2018-04-18T07:14:47.747Z,26.85
2018-04-18T07:17:16.285Z,15.77
2018-04-18T07:19:44.708Z,15.10
2018-04-18T07:22:13.023Z,23.07
2018-04-18T07:24:41.371Z,21.77
2018-04-18T07:27:09.723Z,16.60
2018-04-18T07:29:38.028Z,20.83
2018-04-18T07:32:06.506Z,20.73
2018-04-18T07:34:34.817Z,22.07
2018-04-18T07:37:03.197Z,28.10
2018-04-18T07:39:31.483Z,31.65
2018-04-18T07:42:00.596Z,29.93
2018-04-18T07:44:29.806Z,41.53
2018-04-18T07:46:58.135Z,28.57
2018-04-18T07:49:26.483Z,31.87
2018-04-18T07:51:54.796Z,28.00
2018-04-18T07:54:23.116Z,30.10
2018-04-18T07:56:51.504Z,33.67
2018-04-18T07:59:19.813Z,25.03
2018-04-18T08:01:48.462Z,33.10
2018-04-18T08:04:17.068Z,36.63
2018-04-18T08:06:45.626Z,29.83
2018-04-18T08:09:14.120Z,25.35
2018-04-18T08:11:42.639Z,32.43
2018-04-18T08:14:12.113Z,34.17
2018-04-18T08:16:40.434Z,30.50
2018-04-18T08:19:09.523Z,30.70
2018-04-18T08:21:37.844Z,21.60
2018-04-18T08:24:06.522Z,27.27
2018-04-18T08:26:34.823Z,24.17
2018-04-18T08:29:03.217Z,32.33
2018-04-18T08:31:31.529Z,29.87
2018-04-18T08:33:59.940Z,29.37
2018-04-18T08:36:28.258Z,33.97
2018-04-18T08:38:56.572Z,26.63
2018-04-18T08:41:25.644Z,23.00
2018-04-18T08:43:53.997Z,26.70
2018-04-18T08:46:23.708Z,23.23
2018-04-18T08:48:52.126Z,24.27
2018-04-18T08:51:21.312Z,28.67
2018-04-18T08:53:49.598Z,24.43
2018-04-18T08:56:17.917Z,22.30
2018-04-18T08:58:46.187Z,16.62
2018-04-18T09:01:14.585Z,22.50
2018-04-18T09:03:43.040Z,22.87
2018-04-18T09:06:11.556Z,24.83
2018-04-18T09:08:39.967Z,18.07
2018-04-18T09:11:08.362Z,22.67
2018-04-18T09:13:37.429Z,21.43
2018-04-18T09:16:05.734Z,23.30
2018-04-18T09:18:34.958Z,25.17
2018-04-18T09:21:03.327Z,24.53
2018-04-18T09:23:31.802Z,24.80
2018-04-18T09:26:00.365Z,25.73
2018-04-18T09:28:29.556Z,27.37
2018-04-18T09:30:58.764Z,25.35
2018-04-18T09:33:27.235Z,28.70
2018-04-18T09:35:56.305Z,24.53
2018-04-18T09:38:24.619Z,24.17
2018-04-18T09:40:53.845Z,21.73
2018-04-18T09:43:22.225Z,24.08
2018-04-18T09:45:50.690Z,25.23
2018-04-18T09:48:19.016Z,24.33
2018-04-18T09:50:48.243Z,26.30
2018-04-18T09:53:18.453Z,30.90
2018-04-18T09:55:46.830Z,36.60
2018-04-18T09:58:15.339Z,28.47
2018-04-18T10:00:49.338Z,34.63
2018-04-18T10:03:18.650Z,31.10
2018-04-18T10:05:48.163Z,37.53
2018-04-18T10:08:16.497Z,41.47
2018-04-18T10:10:44.833Z,32.72
2018-04-18T10:13:13.396Z,31.80
2018-04-18T10:15:41.753Z,36.10
2018-04-18T10:18:10.932Z,31.60
2018-04-18T10:20:39.515Z,29.80
2018-04-18T10:23:07.879Z,38.70
2018-04-18T10:25:36.202Z,32.67
2018-04-18T10:28:06.195Z,35.97
2018-04-18T10:30:35.337Z,27.90
2018-04-18T10:33:03.625Z,33.37
2018-04-18T10:35:32.100Z,33.67
2018-04-18T10:38:00.416Z,30.60
2018-04-18T10:40:28.756Z,32.87
2018-04-18T10:42:57.054Z,25.77
2018-04-18T10:45:25.390Z,28.65
2018-04-18T10:47:53.708Z,28.33
2018-04-18T10:50:22.021Z,31.77
2018-04-18T10:52:51.225Z,26.73
2018-04-18T10:55:20.420Z,27.07
2018-04-18T10:57:49.553Z,26.90
2018-04-18T11:00:18.852Z,26.97
2018-04-18T11:02:47.547Z,28.03
2018-04-18T11:05:15.861Z,23.80
2018-04-18T11:07:44.159Z,28.63
2018-04-18T11:10:13.233Z,25.17
2018-04-18T11:12:41.557Z,35.17
2018-04-18T11:15:09.871Z,36.67
2018-04-18T11:17:38.220Z,33.97
2018-04-18T11:20:06.570Z,28.00
2018-04-18T11:22:35.622Z,27.43
2018-04-18T11:25:04.001Z,31.73
2018-04-18T11:27:32.394Z,32.93
2018-04-18T11:30:01.489Z,33.33
2018-04-18T11:32:29.813Z,38.93
2018-04-18T11:34:58.174Z,31.93
2018-04-18T11:37:26.696Z,36.03
2018-04-18T11:39:55.149Z,35.73
2018-04-18T11:42:23.464Z,36.28
2018-04-18T11:44:51.808Z,39.95
2018-04-18T11:47:20.270Z,42.17
2018-04-18T11:49:48.626Z,34.50
2018-04-18T11:52:17.263Z,32.97
2018-04-18T11:54:45.681Z,27.90
2018-04-18T11:57:14.019Z,26.00
2018-04-18T11:59:42.958Z,31.42
2018-04-18T12:02:13.341Z,30.07
2018-04-18T12:04:41.638Z,29.33
2018-04-18T12:07:10.007Z,30.80
2018-04-18T12:09:38.389Z,26.97
2018-04-18T12:12:06.834Z,27.40
2018-04-18T12:14:35.359Z,28.53
2018-04-18T12:17:03.675Z,26.00
2018-04-18T12:19:32.019Z,29.90
2018-04-18T12:22:00.378Z,25.40
2018-04-18T12:24:28.737Z,27.87
2018-04-18T12:26:57.229Z,32.37
2018-04-18T12:29:25.697Z,29.40
2018-04-18T12:31:54.244Z,32.57
2018-04-18T12:34:23.356Z,26.57
2018-04-18T12:36:51.752Z,27.43
2018-04-18T12:39:20.122Z,30.37
2018-04-18T12:41:48.467Z,32.47
2018-04-18T12:44:17.559Z,28.50
2018-04-18T12:46:45.968Z,30.95
2018-04-18T12:49:14.431Z,29.83
2018-04-18T12:51:42.868Z,27.77
2018-04-18T12:54:11.238Z,26.73
2018-04-18T12:56:39.566Z,32.27
2018-04-18T12:59:08.720Z,34.33
2018-04-18T13:01:37.617Z,29.52
2018-04-18T13:04:06.087Z,41.73
2018-04-18T13:06:34.416Z,49.60
2018-04-18T13:09:03.680Z,31.13
2018-04-18T13:11:32.016Z,30.73
2018-04-18T13:14:00.335Z,25.88
2018-04-18T13:16:28.696Z,30.63
2018-04-18T13:18:56.996Z,29.37
2018-04-18T13:21:25.345Z,25.42
2018-04-18T13:23:53.647Z,34.47
2018-04-18T13:26:22.753Z,28.90
2018-04-18T13:28:51.097Z,36.57
2018-04-18T13:31:19.902Z,31.92
2018-04-18T13:33:48.303Z,34.63
2018-04-18T13:36:17.445Z,29.23
2018-04-18T13:38:45.801Z,33.17
2018-04-18T13:41:14.125Z,35.53
2018-04-18T13:43:42.836Z,31.53
2018-04-18T13:46:11.243Z,29.67
2018-04-18T13:48:39.675Z,25.67
2018-04-18T13:51:08.224Z,28.50
2018-04-18T13:53:36.659Z,25.80
2018-04-18T13:56:05.986Z,25.00
2018-04-18T13:58:34.328Z,30.95
2018-04-18T14:01:02.837Z,34.47
2018-04-18T14:03:32.155Z,30.67
2018-04-18T14:06:00.666Z,31.93
2018-04-18T14:08:29.001Z,32.07
2018-04-18T14:10:57.515Z,32.93
2018-04-18T14:13:26.080Z,31.40
2018-04-18T14:15:54.413Z,31.47
2018-04-18T14:18:22.847Z,34.95
2018-04-18T14:20:51.484Z,33.30
2018-04-18T14:23:19.896Z,34.17
2018-04-18T14:25:48.212Z,28.13
2018-04-18T14:28:16.585Z,31.05
2018-04-18T14:30:44.905Z,31.23
2018-04-18T14:33:15.209Z,29.03
2018-04-18T14:35:44.567Z,26.03
2018-04-18T14:38:12.947Z,34.50
2018-04-18T14:40:41.344Z,34.90
2018-04-18T14:43:09.642Z,27.63
2018-04-18T14:45:38.017Z,34.73
2018-04-18T14:48:06.327Z,22.00
2018-04-18T14:50:35.422Z,24.37
2018-04-18T14:53:04.548Z,26.03
2018-04-18T14:55:32.882Z,28.62
2018-04-18T14:58:01.283Z,28.10
2018-04-18T15:00:29.624Z,24.93
2018-04-18T15:02:57.929Z,26.93
2018-04-18T15:05:28.254Z,26.57
2018-04-18T15:07:57.568Z,21.10
2018-04-18T15:10:26.045Z,19.27
2018-04-18T15:12:54.396Z,24.97
2018-04-18T15:15:22.736Z,21.90
2018-04-18T15:17:51.094Z,29.90
2018-04-18T15:20:20.220Z,28.23
2018-04-18T15:22:48.589Z,30.70
2018-04-18T15:25:16.924Z,21.35
2018-04-18T15:27:45.995Z,22.05
2018-04-18T15:30:14.334Z,40.63
2018-04-18T15:32:42.698Z,33.70
2018-04-18T15:35:11.171Z,24.63
2018-04-18T15:37:40.834Z,28.53
2018-04-18T15:40:09.147Z,26.23
2018-04-18T15:42:37.495Z,20.07
2018-04-18T15:45:05.873Z,23.90
2018-04-18T15:47:34.291Z,28.73
2018-04-18T15:50:02.651Z,24.48
2018-04-18T15:52:31.007Z,25.30
2018-04-18T15:54:59.480Z,29.48
2018-04-18T15:57:28.625Z,32.80
2018-04-18T15:59:56.994Z,30.35
2018-04-18T16:02:25.366Z,28.60
2018-04-18T16:04:54.465Z,25.80
2018-04-18T16:07:23.565Z,25.47
2018-04-18T16:09:53.144Z,27.53
2018-04-18T16:12:21.623Z,28.30
2018-04-18T16:14:50.265Z,30.80
2018-04-18T16:17:18.653Z,25.10
2018-04-18T16:19:47.010Z,27.00
2018-04-18T16:22:15.342Z,27.97
2018-04-18T16:24:43.716Z,23.53
2018-04-18T16:27:12.819Z,28.33
2018-04-18T16:29:44.010Z,30.33
2018-04-18T16:32:12.691Z,27.87
2018-04-18T16:34:41.174Z,24.47
2018-04-18T16:37:09.496Z,28.75
2018-04-18T16:39:37.986Z,20.23
2018-04-18T16:42:06.322Z,22.73
2018-04-18T16:44:36.704Z,28.40
2018-04-18T16:47:07.045Z,23.57
2018-04-18T16:49:35.383Z,22.47
2018-04-18T16:52:03.972Z,24.40
2018-04-18T16:54:32.558Z,27.47
2018-04-18T16:57:00.919Z,38.43
2018-04-18T16:59:30.153Z,32.13
2018-04-18T17:01:59.256Z,24.97
2018-04-18T17:04:27.776Z,25.48
2018-04-18T17:06:56.126Z,25.60
2018-04-18T17:09:24.484Z,27.77
2018-04-18T17:11:53.936Z,27.47
2018-04-18T17:14:22.296Z,22.08
2018-04-18T17:16:50.759Z,25.77
2018-04-18T17:19:19.224Z,22.80
2018-04-18T17:21:48.486Z,19.63
2018-04-18T17:24:18.635Z,20.37
2018-04-18T17:26:47.814Z,26.13
2018-04-18T17:29:16.188Z,23.10
2018-04-18T17:31:44.639Z,25.77
2018-04-18T17:34:13.290Z,19.67
2018-04-18T17:36:41.799Z,24.40
2018-04-18T17:39:10.209Z,24.73
2018-04-18T17:41:38.589Z,21.87
2018-04-18T17:44:07.225Z,19.60
2018-04-18T17:46:35.612Z,24.67
2018-04-18T17:49:05.513Z,17.10
2018-04-18T17:51:34.598Z,18.77
2018-04-18T17:54:04.935Z,19.80
2018-04-18T17:56:33.300Z,19.20
2018-04-18T17:59:02.543Z,15.57
2018-04-18T18:01:30.930Z,34.03
2018-04-18T18:04:00.528Z,23.50
2018-04-18T18:06:29.148Z,13.80
2018-04-18T18:08:57.853Z,19.07
2018-04-18T18:11:26.964Z,23.07
2018-04-18T18:13:55.458Z,15.57
2018-04-18T18:16:23.933Z,16.02
2018-04-18T18:18:52.644Z,15.52
2018-04-18T18:21:20.993Z,16.33
2018-04-18T18:23:49.610Z,18.17
2018-04-18T18:26:17.978Z,16.13
2018-04-18T18:28:46.686Z,16.97
2018-04-18T18:31:15.324Z,14.43
2018-04-18T18:33:43.685Z,16.20
2018-04-18T18:36:12.849Z,17.43
2018-04-18T18:38:41.291Z,13.83
2018-04-18T18:41:09.703Z,13.77
2018-04-18T18:43:38.050Z,15.20
2018-04-18T18:46:06.472Z,14.47
2018-04-18T18:48:34.804Z,17.17
2018-04-18T18:51:03.294Z,16.80
2018-04-18T18:53:31.784Z,17.40
2018-04-18T18:56:00.284Z,14.13
2018-04-18T18:58:28.796Z,62.70
2018-04-18T19:00:57.281Z,78.20
2018-04-18T19:03:26.700Z,34.50
2018-04-18T19:05:56.244Z,17.03
2018-04-18T19:08:24.649Z,13.47
2018-04-18T19:10:53.052Z,19.40
2018-04-18T19:13:21.524Z,14.90
2018-04-18T19:15:49.990Z,13.60
2018-04-18T19:18:18.544Z,13.53
2018-04-18T19:20:46.937Z,18.50
2018-04-18T19:23:15.483Z,13.87
2018-04-18T19:25:43.866Z,11.90
2018-04-18T19:28:12.312Z,13.07
2018-04-18T19:30:41.542Z,15.53
2018-04-18T19:33:09.918Z,13.15
2018-04-18T19:35:38.277Z,12.67
2018-04-18T19:38:06.759Z,13.27
2018-04-18T19:40:36.219Z,15.23
2018-04-18T19:43:05.090Z,14.40
2018-04-18T19:45:33.780Z,12.90
2018-04-18T19:48:02.212Z,14.97
2018-04-18T19:50:31.550Z,20.60
2018-04-18T19:53:00.240Z,17.05
2018-04-18T19:55:28.717Z,19.37
2018-04-18T19:57:58.311Z,19.37
2018-04-18T20:00:26.672Z,13.17
2018-04-18T20:02:56.510Z,13.65
2018-04-18T20:05:24.931Z,12.73
2018-04-18T20:07:53.347Z,18.50
2018-04-18T20:10:22.697Z,17.23
2018-04-18T20:12:52.150Z,20.83
2018-04-18T20:15:21.579Z,18.23
2018-04-18T20:17:49.894Z,19.07
2018-04-18T20:20:18.233Z,15.60
2018-04-18T20:22:46.740Z,13.00
2018-04-18T20:25:15.131Z,17.60
2018-04-18T20:27:43.556Z,19.60
2018-04-18T20:30:12.014Z,15.63
2018-04-18T20:32:41.313Z,21.73
2018-04-18T20:35:10.608Z,23.10
2018-04-18T20:37:40.050Z,17.25
2018-04-18T20:40:08.574Z,18.37
2018-04-18T20:42:37.098Z,23.70
2018-04-18T20:45:05.581Z,22.90
2018-04-18T20:47:34.738Z,15.37
2018-04-18T20:50:03.383Z,16.40
2018-04-18T20:52:34.521Z,19.07
2018-04-18T20:55:02.971Z,23.87
2018-04-18T20:57:32.297Z,19.87
2018-04-18T21:00:00.685Z,19.02
2018-04-18T21:02:29.092Z,21.08
2018-04-18T21:04:57.616Z,19.63
2018-04-18T21:07:26.807Z,20.67
2018-04-18T21:09:55.894Z,21.53
2018-04-18T21:12:25.117Z,22.20
2018-04-18T21:14:54.329Z,18.35
2018-04-18T21:17:22.666Z,19.53
2018-04-18T21:19:51.918Z,19.90
2018-04-18T21:22:20.355Z,21.93
2018-04-18T21:24:49.504Z,20.37
2018-04-18T21:27:18.217Z,17.47
2018-04-18T21:29:46.557Z,22.67
2018-04-18T21:32:14.917Z,21.33
2018-04-18T21:34:43.240Z,17.77
2018-04-18T21:37:11.573Z,18.43
2018-04-18T21:39:40.085Z,23.38
2018-04-18T21:42:08.447Z,20.25
2018-04-18T21:44:36.857Z,22.50
2018-04-18T21:47:06.946Z,21.05
2018-04-18T21:49:35.470Z,23.50
2018-04-18T21:52:04.025Z,22.57
2018-04-18T21:54:32.566Z,19.87
2018-04-18T21:57:01.770Z,23.57
2018-04-18T21:59:31.428Z,25.53
2018-04-18T22:02:00.685Z,31.00
2018-04-18T22:04:29.166Z,24.27
2018-04-18T22:06:57.682Z,25.08
2018-04-18T22:09:25.990Z,18.10
2018-04-18T22:11:54.451Z,22.93
2018-04-18T22:14:22.807Z,22.92
2018-04-18T22:16:51.219Z,20.80
2018-04-18T22:19:20.851Z,20.98
2018-04-18T22:21:49.939Z,23.60
2018-04-18T22:24:19.017Z,22.23
2018-04-18T22:26:47.303Z,18.70
2018-04-18T22:29:15.703Z,19.93
2018-04-18T22:31:44.019Z,18.97
2018-04-18T22:34:12.480Z,20.10
2018-04-18T22:36:40.830Z,27.07
2018-04-18T22:39:10.188Z,18.90
2018-04-18T22:41:38.475Z,18.77
2018-04-18T22:44:06.808Z,19.77
2018-04-18T22:46:35.213Z,19.17
2018-04-18T22:49:03.542Z,21.23
2018-04-18T22:51:33.853Z,17.67
2018-04-18T22:54:03.073Z,16.87
2018-04-18T22:56:31.463Z,17.90
2018-04-18T22:58:59.957Z,18.40
2018-04-18T23:01:30.276Z,18.50
2018-04-18T23:03:58.563Z,19.80
2018-04-18T23:06:26.885Z,18.87
2018-04-18T23:08:55.249Z,21.30
2018-04-18T23:11:24.453Z,19.33
2018-04-18T23:13:52.779Z,19.27
2018-04-18T23:16:21.224Z,19.48
2018-04-18T23:18:49.495Z,19.97
2018-04-18T23:21:18.575Z,18.92
2018-04-18T23:23:46.962Z,20.50
2018-04-18T23:26:15.242Z,22.53
2018-04-18T23:28:44.680Z,24.93
2018-04-18T23:31:13.016Z,21.13
2018-04-18T23:33:41.328Z,27.17
2018-04-18T23:36:09.627Z,27.03
2018-04-18T23:38:38.040Z,28.48
2018-04-18T23:41:06.352Z,26.37
2018-04-18T23:43:34.890Z,19.62
2018-04-18T23:46:03.234Z,21.37
2018-04-18T23:48:31.643Z,26.52
2018-04-18T23:51:00.015Z,17.20
2018-04-18T23:53:28.299Z,19.00
2018-04-18T23:55:56.653Z,23.13
2018-04-18T23:58:24.954Z,22.50
